Aérodrome :
LOGIN :

S'inscrire | Disclaimer

   EN    FR    IT 

 










Légende :    VFR   VFR Marginal   IFR   IFR Intensif   IFR Très Intensif
Visi : 
Plafond : 
>= 8 km
>= 3000ft
5 à 8 km
1000 à 3000 ft
1500m à 5 km
500 à 1000 ft
800 à 1500m
200 à 500 ft
< 800m
< 200 ft
Symboles :   Orages  Brouillard  Fortes neiges  Fortes précipitations  Vent > 20 kt
SIGMETs :   Divers  Orages  Givrage  Turbulence  Onde Orograph.  Cendres Volcan.







- Altitude de l'aérodrome : 16 ft
- Code IATA : AAE


DABB - Annaba-Rabah Bitat

DERNIER METAR :
  • 280000Z 11002KT 8000 FEW026 SCT200 15/13 Q1012

METARs EXPIRÉS :
  • 272330Z 00000KT 8000 FEW026 SCT200 15/14 Q1012
  • 272300Z VRB02KT 8000 FEW026 SCT200 16/14 Q1012
  • 272230Z 18003KT 8000 FEW026 SCT200 16/15 Q1011
  • 272200Z 15006KT 100V170 8000 FEW026 SCT200 16/15 Q1011
  • 272130Z 09005KT 8000 FEW026CB SCT033 17/15 Q1011

TAF TAF DABB
Valide du 28 à 00h jusqu'au 29 à 00h UTC


272300Z 2800/2824 33010KT 8000 FEW026 SCT200
PROB30
TEMPO 2800/2811 4000 -TSRA FEW023CB BKN030
Pas de NOTAMs connus pour ce terrain.



MET'MAP, la Météo Aéronautique d'un coup d'oeil ! - Copyright ORBIFLY Décembre 2007 - Disclaimer

ORBIFLY MET'MAP TEAM :

Programmation & Développement : Alexandra Zaïnal
Conception & Développement : Baudouin d'Aumeries
Co-Programmation & Développement : Marc-Olivier Méhu
Soutien technique & logistique : Manuel Goepfert

Contact : metmap@orbifly.com




SOURCES & CREDITS :

   NOAA